createdAt,value
2017-09-16T00:01:24.508Z,74.50
2017-09-16T00:03:51.954Z,74.50
2017-09-16T00:06:19.375Z,74.60
2017-09-16T00:08:46.863Z,74.70
2017-09-16T00:11:14.320Z,74.90
2017-09-16T00:13:41.730Z,74.80
2017-09-16T00:16:09.153Z,74.60
2017-09-16T00:18:36.602Z,74.80
2017-09-16T00:21:04.015Z,74.90
2017-09-16T00:23:31.440Z,75.00
2017-09-16T00:25:58.912Z,75.00
2017-09-16T00:28:26.324Z,75.00
2017-09-16T00:30:54.213Z,74.90
2017-09-16T00:33:21.632Z,74.90
2017-09-16T00:35:49.066Z,74.80
2017-09-16T00:38:16.603Z,74.80
2017-09-16T00:40:44.025Z,74.80
2017-09-16T00:43:11.849Z,74.90
2017-09-16T00:45:39.404Z,74.90
2017-09-16T00:48:06.841Z,75.20
2017-09-16T00:50:34.255Z,75.40
2017-09-16T00:53:01.708Z,75.50
2017-09-16T00:55:29.131Z,75.60
2017-09-16T00:57:56.561Z,75.50
2017-09-16T01:00:24.271Z,75.60
2017-09-16T01:02:51.725Z,75.60
2017-09-16T01:05:19.142Z,75.60
2017-09-16T01:07:46.757Z,75.50
2017-09-16T01:10:14.181Z,75.40
2017-09-16T01:12:42.017Z,75.30
2017-09-16T01:15:09.489Z,75.30
2017-09-16T01:17:36.929Z,75.30
2017-09-16T01:20:04.350Z,75.40
2017-09-16T01:22:31.816Z,75.40
2017-09-16T01:24:59.255Z,75.50
2017-09-16T01:27:26.668Z,75.40
2017-09-16T01:29:54.460Z,75.60
2017-09-16T01:32:22.666Z,75.60
2017-09-16T01:34:50.594Z,75.60
2017-09-16T01:37:19.890Z,75.60
2017-09-16T01:39:47.354Z,75.40
2017-09-16T01:42:14.763Z,75.50
2017-09-16T01:44:42.701Z,75.60
2017-09-16T01:47:10.137Z,75.60
2017-09-16T01:49:37.768Z,75.60
2017-09-16T01:52:05.615Z,75.50
2017-09-16T01:54:33.648Z,75.60
2017-09-16T01:57:01.095Z,75.70
2017-09-16T01:59:28.529Z,75.70
2017-09-16T02:01:55.956Z,75.50
2017-09-16T02:04:23.414Z,75.40
2017-09-16T02:06:50.836Z,75.60
2017-09-16T02:09:18.655Z,75.70
2017-09-16T02:11:46.303Z,75.70
2017-09-16T02:14:13.745Z,75.80
2017-09-16T02:16:42.052Z,75.70
2017-09-16T02:19:09.610Z,75.70
2017-09-16T02:21:37.023Z,75.60
2017-09-16T02:24:04.830Z,75.50
2017-09-16T02:26:32.289Z,75.50
2017-09-16T02:28:59.749Z,75.60
2017-09-16T02:31:27.170Z,75.60
2017-09-16T02:33:54.675Z,75.90
2017-09-16T02:36:22.092Z,76.00
2017-09-16T02:38:49.547Z,76.00
2017-09-16T02:41:17.269Z,76.00
2017-09-16T02:43:44.678Z,76.10
2017-09-16T02:46:12.132Z,76.30
2017-09-16T02:48:39.554Z,76.30
2017-09-16T02:51:06.981Z,76.40
2017-09-16T02:53:34.836Z,76.90
2017-09-16T02:56:02.269Z,76.90
2017-09-16T02:58:29.699Z,77.00
2017-09-16T03:00:57.368Z,77.00
2017-09-16T03:03:24.804Z,77.10
2017-09-16T03:05:52.642Z,76.80
2017-09-16T03:08:20.200Z,76.80
2017-09-16T03:10:47.685Z,76.60
2017-09-16T03:13:15.847Z,76.50
2017-09-16T03:15:43.514Z,76.40
2017-09-16T03:18:11.042Z,76.40
2017-09-16T03:20:38.469Z,76.40
2017-09-16T03:23:06.413Z,76.10
2017-09-16T03:25:33.840Z,76.10
2017-09-16T03:28:01.289Z,75.90
2017-09-16T03:30:29.190Z,76.00
2017-09-16T03:32:56.636Z,76.10
2017-09-16T03:35:24.055Z,76.10
2017-09-16T03:37:51.928Z,75.70
2017-09-16T03:40:19.981Z,75.70
2017-09-16T03:42:47.434Z,75.70
2017-09-16T03:45:14.875Z,75.60
2017-09-16T03:47:42.569Z,75.80
2017-09-16T03:50:10.012Z,75.80
2017-09-16T03:52:37.417Z,75.70
2017-09-16T03:55:05.271Z,75.80
2017-09-16T03:57:32.924Z,75.80
2017-09-16T04:00:00.358Z,75.80
2017-09-16T04:02:40.023Z,75.90
2017-09-16T04:05:07.518Z,76.30
2017-09-16T04:07:35.389Z,76.80
2017-09-16T04:10:02.905Z,76.80
2017-09-16T04:12:30.402Z,77.20
2017-09-16T04:14:57.849Z,77.50
2017-09-16T04:17:25.495Z,77.90
2017-09-16T04:19:52.941Z,78.10
2017-09-16T04:22:20.426Z,78.30
2017-09-16T04:24:47.916Z,78.40
2017-09-16T04:27:15.463Z,78.50
2017-09-16T04:29:43.022Z,78.40
2017-09-16T04:32:10.583Z,78.50
2017-09-16T04:34:38.060Z,78.70
2017-09-16T04:37:05.598Z,78.50
2017-09-16T04:39:33.165Z,78.40
2017-09-16T04:42:00.621Z,78.10
2017-09-16T04:44:28.201Z,78.00
2017-09-16T04:46:55.803Z,77.80
2017-09-16T04:49:23.650Z,77.90
2017-09-16T04:51:51.277Z,77.90
2017-09-16T04:54:19.101Z,77.90
2017-09-16T04:56:46.653Z,78.20
2017-09-16T04:59:14.160Z,78.60
2017-09-16T05:01:41.640Z,78.90
2017-09-16T05:04:09.098Z,79.00
2017-09-16T05:06:36.893Z,78.90
2017-09-16T05:09:04.351Z,78.80
2017-09-16T05:11:32.473Z,78.90
2017-09-16T05:14:00.507Z,79.00
2017-09-16T05:16:27.955Z,79.00
2017-09-16T05:18:55.396Z,79.00
2017-09-16T05:21:22.898Z,78.80
2017-09-16T05:23:50.470Z,79.20
2017-09-16T05:26:17.918Z,79.30
2017-09-16T05:28:45.361Z,79.70
2017-09-16T05:31:12.833Z,79.90
2017-09-16T05:33:40.277Z,80.00
2017-09-16T05:36:07.957Z,80.00
2017-09-16T05:38:35.426Z,79.90
2017-09-16T05:41:02.852Z,80.00
2017-09-16T05:43:30.489Z,79.80
2017-09-16T05:45:58.336Z,79.10
2017-09-16T05:48:25.772Z,79.10
2017-09-16T05:50:53.309Z,78.90
2017-09-16T05:53:20.976Z,78.50
2017-09-16T05:55:48.462Z,78.60
2017-09-16T05:58:16.099Z,78.70
2017-09-16T06:00:44.600Z,79.00
2017-09-16T06:03:12.059Z,79.00
2017-09-16T06:05:39.575Z,79.10
2017-09-16T06:08:07.195Z,79.60
2017-09-16T06:10:35.053Z,79.70
2017-09-16T06:13:02.726Z,79.90
2017-09-16T06:15:30.466Z,80.10
2017-09-16T06:17:57.953Z,80.30
2017-09-16T06:20:25.399Z,80.40
2017-09-16T06:22:53.568Z,80.30
2017-09-16T06:25:21.505Z,80.20
2017-09-16T06:27:48.931Z,80.20
2017-09-16T06:30:16.420Z,80.30
2017-09-16T06:32:43.904Z,80.40
2017-09-16T06:35:11.377Z,80.50
2017-09-16T06:37:39.195Z,80.50
2017-09-16T06:40:06.834Z,80.50
2017-09-16T06:42:34.281Z,80.30
2017-09-16T06:45:02.353Z,80.20
2017-09-16T06:47:30.442Z,80.40
2017-09-16T06:49:58.257Z,80.60
2017-09-16T06:52:25.720Z,80.60
2017-09-16T06:54:53.197Z,80.40
2017-09-16T06:57:20.650Z,80.20
2017-09-16T06:59:48.191Z,80.40
2017-09-16T07:02:15.647Z,80.60
2017-09-16T07:04:43.103Z,80.40
2017-09-16T07:07:11.412Z,80.20
2017-09-16T07:09:39.028Z,80.50
2017-09-16T07:12:07.038Z,80.40
2017-09-16T07:14:36.564Z,80.40
2017-09-16T07:17:04.014Z,80.50
2017-09-16T07:19:31.590Z,80.60
2017-09-16T07:21:59.020Z,80.50
2017-09-16T07:24:26.496Z,80.00
2017-09-16T07:26:53.967Z,80.10
2017-09-16T07:29:21.434Z,80.30
2017-09-16T07:31:48.893Z,80.30
2017-09-16T07:34:16.346Z,80.10
2017-09-16T07:36:43.803Z,79.70
2017-09-16T07:39:11.290Z,79.70
2017-09-16T07:41:38.729Z,79.50
2017-09-16T07:44:06.178Z,79.30
2017-09-16T07:46:33.882Z,78.90
2017-09-16T07:49:01.320Z,78.70
2017-09-16T07:51:28.875Z,78.60
2017-09-16T07:53:56.407Z,78.30
2017-09-16T07:56:24.276Z,77.50
2017-09-16T07:58:51.783Z,77.50
2017-09-16T08:01:19.258Z,77.00
2017-09-16T08:03:46.727Z,76.50
2017-09-16T08:06:14.200Z,76.30
2017-09-16T08:08:41.678Z,75.90
2017-09-16T08:11:09.606Z,75.70
2017-09-16T08:13:37.106Z,75.70
2017-09-16T08:16:04.982Z,74.70
2017-09-16T08:18:32.451Z,74.70
2017-09-16T08:21:00.399Z,74.50
2017-09-16T08:23:27.848Z,74.50
2017-09-16T08:25:55.461Z,74.60
2017-09-16T08:28:23.051Z,74.20
2017-09-16T08:30:50.499Z,73.70
2017-09-16T08:33:18.132Z,73.90
2017-09-16T08:35:45.567Z,73.60
2017-09-16T08:38:13.113Z,73.30
2017-09-16T08:40:40.866Z,73.20
2017-09-16T08:43:08.351Z,73.20
2017-09-16T08:45:35.851Z,72.70
2017-09-16T08:48:03.552Z,72.60
2017-09-16T08:50:32.017Z,72.60
2017-09-16T08:52:59.507Z,72.70
2017-09-16T08:55:26.956Z,72.90
2017-09-16T08:57:55.083Z,72.70
2017-09-16T09:00:22.679Z,72.70
2017-09-16T09:02:50.169Z,72.50
2017-09-16T09:05:17.598Z,71.90
2017-09-16T09:07:45.571Z,71.70
2017-09-16T09:10:13.521Z,71.10
2017-09-16T09:12:41.055Z,71.10
2017-09-16T09:15:08.532Z,71.00
2017-09-16T09:17:35.997Z,70.20
2017-09-16T09:20:03.521Z,70.20
2017-09-16T09:22:31.231Z,70.10
2017-09-16T09:25:00.687Z,69.90
2017-09-16T09:27:28.220Z,70.10
2017-09-16T09:29:55.736Z,70.00
2017-09-16T09:32:23.215Z,69.90
2017-09-16T09:34:50.727Z,69.70
2017-09-16T09:37:18.756Z,69.40
2017-09-16T09:39:46.261Z,69.40
2017-09-16T09:42:13.824Z,69.50
2017-09-16T09:44:41.913Z,68.70
2017-09-16T09:47:09.409Z,68.70
2017-09-16T09:49:36.871Z,68.50
2017-09-16T09:52:04.529Z,68.30
2017-09-16T09:54:32.609Z,68.70
2017-09-16T09:57:00.147Z,68.70
2017-09-16T09:59:28.020Z,71.50
2017-09-16T10:01:56.182Z,69.50
2017-09-16T10:04:23.670Z,69.50
2017-09-16T10:06:51.524Z,67.90
2017-09-16T10:09:19.420Z,67.00
2017-09-16T10:11:46.952Z,67.00
2017-09-16T10:14:14.418Z,65.80
2017-09-16T10:16:41.891Z,64.70
2017-09-16T10:19:09.439Z,64.10
2017-09-16T10:21:37.128Z,64.70
2017-09-16T10:24:04.638Z,64.50
2017-09-16T10:26:32.158Z,64.20
2017-09-16T10:29:00.009Z,63.70
2017-09-16T10:31:28.045Z,63.60
2017-09-16T10:33:55.572Z,63.60
2017-09-16T10:36:23.037Z,63.40
2017-09-16T10:38:50.753Z,63.40
2017-09-16T10:41:18.276Z,63.20
2017-09-16T10:43:45.818Z,62.00
2017-09-16T10:46:13.762Z,61.40
2017-09-16T10:48:41.259Z,61.40
2017-09-16T10:51:09.072Z,62.00
2017-09-16T10:53:36.585Z,62.00
2017-09-16T10:56:05.035Z,62.60
2017-09-16T10:58:32.538Z,62.60
2017-09-16T11:00:59.952Z,62.30
2017-09-16T11:03:27.419Z,61.90
2017-09-16T11:05:54.951Z,62.40
2017-09-16T11:08:22.413Z,62.70
2017-09-16T11:10:49.902Z,61.80
2017-09-16T11:13:17.494Z,61.70
2017-09-16T11:15:45.009Z,61.90
2017-09-16T11:18:12.654Z,61.90
2017-09-16T11:20:40.137Z,62.30
2017-09-16T11:23:07.608Z,61.20
2017-09-16T11:25:35.389Z,60.10
2017-09-16T11:28:02.790Z,61.50
2017-09-16T11:30:30.526Z,62.70
2017-09-16T11:32:58.006Z,63.00
2017-09-16T11:35:25.856Z,61.70
2017-09-16T11:37:54.338Z,61.70
2017-09-16T11:40:21.915Z,60.90
2017-09-16T11:42:49.402Z,60.60
2017-09-16T11:45:17.254Z,62.00
2017-09-16T11:47:44.867Z,62.00
2017-09-16T11:50:12.572Z,61.20
2017-09-16T11:52:40.079Z,61.10
2017-09-16T11:55:07.483Z,60.20
2017-09-16T11:57:35.018Z,60.40
2017-09-16T12:00:02.595Z,61.50
2017-09-16T12:02:30.449Z,60.80
2017-09-16T12:04:57.962Z,60.00
2017-09-16T12:07:25.683Z,60.50
2017-09-16T12:09:53.337Z,60.70
2017-09-16T12:12:20.834Z,60.90
2017-09-16T12:14:48.373Z,60.30
2017-09-16T12:17:16.032Z,60.30
2017-09-16T12:19:44.014Z,60.80
2017-09-16T12:22:11.574Z,60.80
2017-09-16T12:24:39.250Z,60.10
2017-09-16T12:27:06.708Z,60.00
2017-09-16T12:29:34.222Z,60.50
2017-09-16T12:32:02.008Z,61.00
2017-09-16T12:34:29.914Z,64.00
2017-09-16T12:36:57.458Z,64.00
2017-09-16T12:39:25.371Z,65.30
2017-09-16T12:41:53.206Z,66.00
2017-09-16T12:44:20.713Z,67.00
2017-09-16T12:46:48.317Z,66.90
2017-09-16T12:49:16.071Z,66.40
2017-09-16T12:51:43.577Z,62.90
2017-09-16T12:54:11.201Z,63.10
2017-09-16T12:56:38.692Z,62.80
2017-09-16T12:59:06.961Z,62.90
2017-09-16T13:01:34.819Z,62.30
2017-09-16T13:04:02.706Z,62.50
2017-09-16T13:06:30.587Z,62.00
2017-09-16T13:08:59.803Z,61.70
2017-09-16T13:11:27.331Z,61.70
2017-09-16T13:13:55.193Z,62.60
2017-09-16T13:16:22.719Z,62.60
2017-09-16T13:18:50.232Z,62.80
2017-09-16T13:21:17.728Z,63.20
2017-09-16T13:23:45.235Z,63.70
2017-09-16T13:26:12.712Z,64.50
2017-09-16T13:28:41.746Z,66.40
2017-09-16T13:31:09.485Z,66.40
2017-09-16T13:33:37.402Z,67.20
2017-09-16T13:36:05.828Z,67.20
2017-09-16T13:38:33.310Z,67.40
2017-09-16T13:41:00.862Z,68.50
2017-09-16T13:43:28.757Z,67.60
2017-09-16T13:45:56.256Z,67.60
2017-09-16T13:48:23.772Z,67.20
2017-09-16T13:50:51.715Z,66.80
2017-09-16T13:53:19.226Z,66.80
2017-09-16T13:55:47.180Z,69.00
2017-09-16T13:58:15.045Z,69.50
2017-09-16T14:00:42.501Z,69.50
2017-09-16T14:03:09.998Z,69.70
2017-09-16T14:05:37.482Z,68.20
2017-09-16T14:08:05.232Z,67.20
2017-09-16T14:10:32.827Z,67.10
2017-09-16T14:13:00.546Z,66.40
2017-09-16T14:15:28.473Z,65.30
2017-09-16T14:17:55.910Z,65.30
2017-09-16T14:20:23.374Z,64.20
2017-09-16T14:22:50.859Z,63.80
2017-09-16T14:25:18.314Z,62.30
2017-09-16T14:27:45.807Z,62.40
2017-09-16T14:30:13.331Z,64.20
2017-09-16T14:32:40.844Z,64.70
2017-09-16T14:35:08.268Z,64.30
2017-09-16T14:37:36.016Z,64.40
2017-09-16T14:40:03.502Z,63.80
2017-09-16T14:42:31.144Z,62.80
2017-09-16T14:44:59.631Z,62.70
2017-09-16T14:47:27.306Z,64.10
2017-09-16T14:49:54.830Z,64.10
2017-09-16T14:52:22.682Z,64.00
2017-09-16T14:54:50.131Z,64.00
2017-09-16T14:57:17.620Z,64.20
2017-09-16T14:59:45.545Z,63.70
2017-09-16T15:02:12.989Z,63.70
2017-09-16T15:04:40.503Z,64.60
2017-09-16T15:07:07.973Z,64.60
2017-09-16T15:09:35.898Z,65.30
2017-09-16T15:12:03.382Z,65.30
2017-09-16T15:14:30.863Z,65.10
2017-09-16T15:16:58.444Z,64.80
2017-09-16T15:19:27.161Z,64.80
2017-09-16T15:21:54.655Z,64.80
2017-09-16T15:24:22.137Z,64.70
2017-09-16T15:26:49.648Z,64.40
2017-09-16T15:29:17.194Z,64.30
2017-09-16T15:31:45.264Z,64.10
2017-09-16T15:34:13.124Z,64.00
2017-09-16T15:36:41.029Z,63.90
2017-09-16T15:39:08.510Z,63.90
2017-09-16T15:41:35.987Z,63.20
2017-09-16T15:44:03.442Z,63.30
2017-09-16T15:46:31.018Z,64.10
2017-09-16T15:48:58.496Z,63.90
2017-09-16T15:51:25.996Z,64.80
2017-09-16T15:53:54.306Z,65.00
2017-09-16T15:56:21.781Z,65.40
2017-09-16T15:58:49.238Z,65.10
2017-09-16T16:01:16.724Z,64.90
2017-09-16T16:03:44.196Z,65.30
2017-09-16T16:06:12.159Z,64.90
2017-09-16T16:08:39.681Z,64.90
2017-09-16T16:11:07.175Z,65.10
2017-09-16T16:13:34.627Z,65.30
2017-09-16T16:16:02.217Z,65.40
2017-09-16T16:18:30.261Z,65.40
2017-09-16T16:20:57.736Z,65.50
2017-09-16T16:23:25.220Z,65.80
2017-09-16T16:25:53.187Z,66.00
2017-09-16T16:28:20.953Z,66.00
2017-09-16T16:30:48.502Z,66.50
2017-09-16T16:33:15.966Z,66.50
2017-09-16T16:35:43.494Z,66.70
2017-09-16T16:38:10.968Z,67.00
2017-09-16T16:40:38.437Z,66.80
2017-09-16T16:43:06.026Z,66.90
2017-09-16T16:45:33.725Z,67.10
2017-09-16T16:48:01.258Z,67.30
2017-09-16T16:50:28.949Z,67.20
2017-09-16T16:52:57.059Z,68.10
2017-09-16T16:55:24.524Z,68.10
2017-09-16T16:57:51.961Z,68.10
2017-09-16T17:00:19.448Z,67.70
2017-09-16T17:02:47.161Z,68.10
2017-09-16T17:05:14.692Z,68.60
2017-09-16T17:07:42.153Z,69.30
2017-09-16T17:10:09.770Z,69.10
2017-09-16T17:12:38.624Z,68.90
2017-09-16T17:15:06.095Z,70.00
2017-09-16T17:17:33.551Z,70.50
2017-09-16T17:20:01.035Z,71.20
2017-09-16T17:22:28.893Z,72.80
2017-09-16T17:24:56.357Z,72.80
2017-09-16T17:27:23.893Z,73.60
2017-09-16T17:29:51.366Z,73.70
2017-09-16T17:32:18.956Z,73.40
2017-09-16T17:34:46.417Z,73.10
2017-09-16T17:37:13.894Z,73.40
2017-09-16T17:39:41.964Z,74.30
2017-09-16T17:42:09.472Z,74.30
2017-09-16T17:44:37.043Z,75.10
2017-09-16T17:47:04.499Z,75.50
2017-09-16T17:49:31.958Z,76.10
2017-09-16T17:51:59.655Z,76.20
2017-09-16T17:54:27.070Z,76.10
2017-09-16T17:56:54.493Z,76.70
2017-09-16T17:59:21.959Z,77.80
2017-09-16T18:01:49.387Z,78.20
2017-09-16T18:04:16.815Z,78.00
2017-09-16T18:06:44.727Z,77.90
2017-09-16T18:09:12.160Z,77.80
2017-09-16T18:11:39.632Z,77.60
2017-09-16T18:14:07.056Z,78.10
2017-09-16T18:16:36.774Z,78.20
2017-09-16T18:19:04.459Z,78.20
2017-09-16T18:21:31.880Z,78.50
2017-09-16T18:23:59.701Z,78.70
2017-09-16T18:26:27.260Z,78.70
2017-09-16T18:28:54.696Z,78.70
2017-09-16T18:31:22.502Z,78.60
2017-09-16T18:33:49.937Z,78.60
2017-09-16T18:36:17.418Z,78.70
2017-09-16T18:38:44.870Z,78.50
2017-09-16T18:41:12.350Z,78.50
2017-09-16T18:43:39.806Z,78.40
2017-09-16T18:46:07.229Z,78.20
2017-09-16T18:48:35.068Z,78.50
2017-09-16T18:51:03.130Z,78.50
2017-09-16T18:53:30.577Z,78.70
2017-09-16T18:55:58.128Z,78.70
2017-09-16T18:58:25.838Z,78.80
2017-09-16T19:00:53.245Z,78.90
2017-09-16T19:03:20.729Z,79.00
2017-09-16T19:05:48.215Z,78.90
2017-09-16T19:08:15.642Z,79.00
2017-09-16T19:10:43.058Z,79.00
2017-09-16T19:13:10.682Z,78.70
2017-09-16T19:15:38.168Z,79.10
2017-09-16T19:18:05.588Z,79.20
2017-09-16T19:20:33.721Z,79.40
2017-09-16T19:23:01.130Z,79.50
2017-09-16T19:25:28.548Z,79.60
2017-09-16T19:27:55.990Z,79.50
2017-09-16T19:30:23.529Z,79.60
2017-09-16T19:32:50.940Z,79.30
2017-09-16T19:35:18.763Z,79.80
2017-09-16T19:37:46.214Z,79.80
2017-09-16T19:40:13.626Z,79.80
2017-09-16T19:42:41.351Z,79.90
2017-09-16T19:45:08.811Z,79.80
2017-09-16T19:47:36.270Z,79.70
2017-09-16T19:50:03.710Z,79.70
2017-09-16T19:52:31.145Z,79.70
2017-09-16T19:54:58.714Z,79.70
2017-09-16T19:57:26.555Z,80.00
2017-09-16T19:59:54.184Z,80.00
2017-09-16T20:02:22.037Z,79.70
2017-09-16T20:04:49.943Z,79.30
2017-09-16T20:07:17.388Z,79.20
2017-09-16T20:09:45.081Z,79.30
2017-09-16T20:12:12.525Z,79.50
2017-09-16T20:14:39.945Z,79.70
2017-09-16T20:17:07.792Z,79.90
2017-09-16T20:19:35.318Z,79.90
2017-09-16T20:22:02.985Z,79.90
2017-09-16T20:24:30.389Z,79.70
2017-09-16T20:26:57.824Z,79.70
2017-09-16T20:29:25.271Z,79.60
2017-09-16T20:31:52.733Z,79.70
2017-09-16T20:34:20.196Z,79.50
2017-09-16T20:36:47.638Z,79.40
2017-09-16T20:39:15.049Z,79.40
2017-09-16T20:41:42.576Z,79.20
2017-09-16T20:44:11.739Z,78.90
2017-09-16T20:46:39.909Z,78.80
2017-09-16T20:49:07.351Z,78.80
2017-09-16T20:51:34.904Z,78.60
2017-09-16T20:54:02.313Z,78.60
2017-09-16T20:56:30.144Z,78.90
2017-09-16T20:58:57.580Z,78.90
2017-09-16T21:01:25.145Z,78.70
2017-09-16T21:03:52.624Z,78.60
2017-09-16T21:06:20.039Z,78.60
2017-09-16T21:08:50.671Z,78.60
2017-09-16T21:11:18.091Z,78.60
2017-09-16T21:13:45.523Z,78.70
2017-09-16T21:16:13.002Z,78.80
2017-09-16T21:18:40.411Z,78.60
2017-09-16T21:21:08.232Z,79.00
2017-09-16T21:23:35.929Z,79.00
2017-09-16T21:26:03.374Z,79.20
2017-09-16T21:28:30.837Z,79.30
2017-09-16T21:30:58.364Z,79.10
2017-09-16T21:33:25.808Z,79.10
2017-09-16T21:35:53.954Z,79.20
2017-09-16T21:38:21.395Z,79.20
2017-09-16T21:40:49.605Z,79.10
2017-09-16T21:43:17.430Z,79.10
2017-09-16T21:45:44.874Z,79.10
2017-09-16T21:48:12.355Z,79.10
2017-09-16T21:50:39.795Z,78.80
2017-09-16T21:53:07.253Z,79.10
2017-09-16T21:55:34.679Z,79.00
2017-09-16T21:58:02.191Z,79.10
2017-09-16T22:00:29.797Z,79.20
2017-09-16T22:02:57.317Z,79.20
2017-09-16T22:05:24.733Z,79.10
2017-09-16T22:07:52.571Z,78.80
2017-09-16T22:10:20.002Z,78.80
2017-09-16T22:12:47.471Z,78.80
2017-09-16T22:15:15.133Z,78.90
2017-09-16T22:17:42.602Z,78.60
2017-09-16T22:20:10.050Z,78.70
2017-09-16T22:22:37.547Z,78.80
2017-09-16T22:25:04.981Z,78.70
2017-09-16T22:27:32.382Z,79.10
2017-09-16T22:30:00.338Z,78.90
2017-09-16T22:32:27.802Z,78.90
2017-09-16T22:34:55.269Z,79.20
2017-09-16T22:37:22.930Z,79.10
2017-09-16T22:39:50.338Z,79.10
2017-09-16T22:42:18.267Z,78.90
2017-09-16T22:44:46.027Z,78.90
2017-09-16T22:47:13.494Z,78.80
2017-09-16T22:49:40.940Z,78.90
2017-09-16T22:52:08.387Z,79.10
2017-09-16T22:54:35.839Z,79.20
2017-09-16T22:57:03.256Z,79.60
2017-09-16T22:59:31.376Z,79.60
2017-09-16T23:01:58.850Z,79.70
2017-09-16T23:04:26.271Z,79.70
2017-09-16T23:06:54.200Z,79.60
2017-09-16T23:09:21.665Z,79.60
2017-09-16T23:11:49.112Z,79.40
2017-09-16T23:14:16.599Z,79.40
2017-09-16T23:16:44.063Z,79.40
2017-09-16T23:19:11.717Z,79.30
2017-09-16T23:21:39.165Z,79.30
2017-09-16T23:24:06.579Z,78.70
2017-09-16T23:26:34.042Z,78.70
2017-09-16T23:29:01.454Z,78.50
2017-09-16T23:31:29.350Z,78.30
2017-09-16T23:33:56.904Z,78.20
2017-09-16T23:36:24.342Z,78.20
2017-09-16T23:38:51.883Z,78.30
2017-09-16T23:41:19.412Z,78.10
2017-09-16T23:43:46.912Z,78.00
2017-09-16T23:46:14.843Z,78.30
2017-09-16T23:48:42.282Z,78.30
2017-09-16T23:51:09.940Z,78.40
2017-09-16T23:53:37.362Z,78.90
2017-09-16T23:56:05.266Z,78.60
2017-09-16T23:58:32.751Z,78.60
